CheckWX is a tool to help pilots better visualize weather data.  It is not intended as a substitute for an official pre-flight weather briefing.

16:55:44 UTC

PAJN TAF
Juneau International Airport
Juneau, Alaska, USA
PAJN 181600Z 1816/1912 10008KT 6SM -SHRA SCT025 OVC035 TEMPO 1816/1820 5SM -SHRA BR FEW006 OVC025 FM190100 10009KT P6SM VCSH OVC050

Jun-18@
16:00 UTC

Jun-18 @ 16:00 UTC

Jun-19@
01:00 UTC

Jun-19 @ 01:00 UTC

PAJN 181600Z 1816/1912 10008KT 6SM -SHRA SCT025 OVC035
Wind
  • 100° at 8 KTS
Conditions
Light Rain
Cloud Levels
  • Scattered at 2,500' AGL
  • Overcast at 3,500' AGL

Jun-18@
16:00 UTC

Jun-18 @ 16:00 UTC

Jun-18@
20:00 UTC

Jun-18 @ 20:00 UTC

TEMPO 1816/1820 5SM -SHRA BR FEW006 OVC025

Temporary

Temporary Changes expected for less than half the time period

Conditions
Light Rain, Mist
Cloud Levels
  • Few at 600' AGL
  • Overcast at 2,500' AGL

Jun-19@
01:00 UTC

Jun-19 @ 01:00 UTC

Jun-19@
12:00 UTC

Jun-19 @ 12:00 UTC

FM190100 10009KT P6SM VCSH OVC050

From

From Standard forecast or significant change

Wind
  • 100° at 9 KTS
Cloud Levels
  • Overcast at 5,000' AGL